Time;durP1;ratioP1;P1;durP2;ratioP2;P2;SDS_P1;SDS_P2;PMS_P1;PMS_P2;Temp;Humidity;BMP_temperature;BMP_pressure;BME280_temperature;BME280_humidity;BME280_pressure;Samples;Min_cycle;Max_cycle;Signal;HPM_P1;HPM_P2
2021/12/27 00:02:48;;;;;;;51.23;30.47;;;;;;;-1.22;84.84;98965.66;5137859;23;20227;-82
2021/12/27 00:05:47;;;;;;;48.57;29.47;;;;;;;-1.28;84.56;98961.03;5130664;23;20807;-82
2021/12/27 00:09:05;;;;;;;48.50;29.67;;;;;;;-1.22;84.21;98955.16;5052136;28;20266;-82
2021/12/27 00:11:50;;;;;;;48.73;29.47;;;;;;;-1.31;84.73;98948.22;5060686;23;20229;-82
2021/12/27 00:14:42;;;;;;;49.33;29.77;;;;;;;-1.15;84.58;98942.16;5123216;22;20212;-82
2021/12/27 00:17:51;;;;;;;49.20;30.83;;;;;;;-1.39;84.79;98945.56;5130011;28;20203;-82
2021/12/27 00:20:39;;;;;;;46.70;29.33;;;;;;;-1.31;85.45;98947.41;5133602;28;20287;-81
2021/12/27 00:23:58;;;;;;;49.37;29.93;;;;;;;-1.26;85.32;98956.44;5141250;22;20215;-81
2021/12/27 00:26:57;;;;;;;48.73;29.17;;;;;;;-1.33;85.08;98951.00;5071146;28;20246;-82
2021/12/27 00:30:46;;;;;;;45.50;28.17;;;;;;;-1.15;84.29;98944.78;5099335;28;20216;-82
2021/12/27 00:33:54;;;;;;;47.07;28.30;;;;;;;-1.29;84.81;98938.38;5146083;22;20234;-82
2021/12/27 00:37:24;;;;;;;48.93;29.87;;;;;;;-1.19;85.55;98946.94;5150940;22;20268;-83
2021/12/27 00:40:46;;;;;;;46.40;29.13;;;;;;;-1.38;84.99;98936.72;5092747;22;20233;-82
2021/12/27 00:43:52;;;;;;;44.10;28.57;;;;;;;-1.33;85.11;98950.19;5108041;23;20228;-82
2021/12/27 00:46:46;;;;;;;49.80;29.27;;;;;;;-1.28;85.38;98953.16;5119072;28;20319;-81
2021/12/27 00:49:41;;;;;;;46.20;28.63;;;;;;;-1.34;85.43;98945.91;5121684;22;20261;-83
2021/12/27 00:53:02;;;;;;;46.67;28.73;;;;;;;-1.29;85.70;98945.44;5109024;28;20216;-82
2021/12/27 00:55:56;;;;;;;43.53;28.50;;;;;;;-1.29;85.38;98963.81;5104586;28;20573;-82
2021/12/27 00:58:44;;;;;;;47.83;30.17;;;;;;;-1.17;84.49;98952.88;5120999;22;20247;-81
2021/12/27 01:01:27;;;;;;;50.67;28.97;;;;;;;-1.27;84.93;98960.06;5123477;23;20270;-82
2021/12/27 01:05:12;;;;;;;46.43;29.07;;;;;;;-1.50;84.56;98938.81;5134669;22;20223;-82
2021/12/27 01:08:02;;;;;;;49.33;29.07;;;;;;;-1.28;85.84;98961.03;5123574;22;20233;-82
2021/12/27 01:14:13;;;;;;;46.10;28.73;;;;;;;-1.23;85.36;98963.19;5086246;23;20285;-82
2021/12/27 01:16:52;;;;;;;44.67;28.03;;;;;;;-1.29;84.61;98953.31;5105157;22;20220;-82
2021/12/27 01:20:02;;;;;;;47.73;29.43;;;;;;;-1.41;84.99;98945.75;5094710;22;20259;-83
2021/12/27 01:22:58;;;;;;;46.23;29.63;;;;;;;-1.36;85.20;98959.22;5083656;23;20276;-82
2021/12/27 01:25:29;;;;;;;44.40;28.50;;;;;;;-1.38;85.78;98955.09;5078246;28;20174;-82
2021/12/27 01:28:18;;;;;;;48.60;29.83;;;;;;;-1.34;86.02;98961.69;5076928;28;20221;-82
2021/12/27 01:34:36;;;;;;;46.50;29.73;;;;;;;-1.29;86.29;98959.38;5059085;22;20227;-82
2021/12/27 01:37:18;;;;;;;47.13;29.17;;;;;;;-1.21;86.30;98961.25;5103496;22;20236;-82
2021/12/27 01:40:44;;;;;;;47.43;28.97;;;;;;;-1.15;86.07;98958.78;5151740;22;20274;-82
2021/12/27 01:43:40;;;;;;;45.23;29.77;;;;;;;-1.09;86.51;98957.31;4989783;28;20260;-82
2021/12/27 01:46:30;;;;;;;46.20;28.70;;;;;;;-1.09;86.44;98959.94;5057397;28;20226;-82
2021/12/27 01:49:00;;;;;;;45.83;29.53;;;;;;;-1.08;87.05;98959.78;5057957;28;20237;-82
2021/12/27 01:51:38;;;;;;;46.03;29.57;;;;;;;-0.92;86.00;98961.59;5043917;23;20218;-82
2021/12/27 01:54:13;;;;;;;44.13;28.43;;;;;;;-1.06;85.16;98949.09;5041400;28;20221;-82
2021/12/27 01:57:28;;;;;;;44.23;28.90;;;;;;;-1.15;84.48;98939.53;5062178;22;20237;-82
2021/12/27 02:00:43;;;;;;;45.13;28.00;;;;;;;-1.03;84.65;98961.94;5077579;28;20217;-82
2021/12/27 02:03:52;;;;;;;46.07;28.50;;;;;;;-1.05;84.88;98969.13;5077345;28;20276;-82
2021/12/27 02:06:31;;;;;;;41.20;27.73;;;;;;;-1.12;84.51;98963.69;5069812;23;20202;-82
2021/12/27 02:10:02;;;;;;;41.57;27.03;;;;;;;-1.15;84.82;98950.06;5064666;28;20229;-81
2021/12/27 02:13:18;;;;;;;47.23;28.63;;;;;;;-1.14;84.87;98939.38;5053328;22;20229;-82
2021/12/27 02:15:50;;;;;;;44.57;28.07;;;;;;;-1.12;84.56;98934.78;5065831;22;20217;-82
2021/12/27 02:18:47;;;;;;;44.87;29.20;;;;;;;-0.98;83.84;98947.28;5082972;22;20237;-82
2021/12/27 02:21:50;;;;;;;46.63;28.80;;;;;;;-1.19;84.16;98933.78;5134349;23;20239;-82
2021/12/27 02:28:01;;;;;;;44.73;27.20;;;;;;;-1.08;84.04;98937.94;5034407;28;20241;-82
2021/12/27 02:30:42;;;;;;;46.70;28.43;;;;;;;-1.02;84.96;98940.72;5068788;22;20277;-82
2021/12/27 02:34:00;;;;;;;41.17;27.33;;;;;;;-1.12;83.95;98937.41;5096008;28;20244;-81
2021/12/27 02:36:45;;;;;;;41.60;26.87;;;;;;;-1.17;84.94;98913.44;5057479;22;20230;-83
2021/12/27 02:40:21;;;;;;;41.60;27.00;;;;;;;-1.13;85.27;98929.69;5104004;22;20205;-82
2021/12/27 02:43:58;;;;;;;43.30;26.97;;;;;;;-1.08;83.61;98928.22;5076821;28;20225;-82
2021/12/27 02:46:37;;;;;;;41.77;26.80;;;;;;;-1.18;84.36;98909.16;5076094;28;20244;-82
2021/12/27 02:49:43;;;;;;;45.53;27.73;;;;;;;-1.11;83.85;98915.41;5105298;22;20228;-81
2021/12/27 02:52:58;;;;;;;40.47;26.23;;;;;;;-1.19;84.57;98925.09;5056374;23;20237;-82
2021/12/27 02:55:59;;;;;;;42.47;27.60;;;;;;;-1.06;84.32;98920.16;5094934;22;20260;-82
2021/12/27 02:58:38;;;;;;;44.87;27.93;;;;;;;-1.21;84.34;98917.34;5063869;23;20236;-82
2021/12/27 03:01:56;;;;;;;44.17;27.77;;;;;;;-1.25;85.10;98920.47;5100720;22;20300;-81
2021/12/27 03:05:35;;;;;;;44.67;27.67;;;;;;;-1.26;85.30;98921.47;4977672;28;20225;-82
2021/12/27 03:08:52;;;;;;;39.63;26.87;;;;;;;-1.23;85.77;98918.50;4988179;23;20260;-82
2021/12/27 03:11:54;;;;;;;42.77;26.17;;;;;;;-1.23;86.10;98908.81;5225661;22;21612;-82
2021/12/27 03:15:39;;;;;;;41.50;26.80;;;;;;;-1.19;85.40;98904.06;5083455;22;20243;-82
2021/12/27 03:18:46;;;;;;;40.20;25.93;;;;;;;-1.27;85.33;98891.72;5130062;22;20236;-82
2021/12/27 03:21:57;;;;;;;38.60;25.67;;;;;;;-1.22;85.78;98899.13;5024968;28;20241;-82
2021/12/27 03:25:20;;;;;;;43.90;27.20;;;;;;;-1.13;86.30;98906.03;5125471;22;20267;-82
2021/12/27 03:28:23;;;;;;;42.03;26.37;;;;;;;-1.20;86.28;98899.78;5104820;28;20249;-82
2021/12/27 03:31:50;;;;;;;40.80;26.30;;;;;;;-1.22;86.00;98888.63;5127291;22;20231;-82
2021/12/27 03:35:08;;;;;;;41.30;26.10;;;;;;;-1.14;86.55;98904.38;5130921;23;20227;-82
2021/12/27 03:38:06;;;;;;;38.40;25.30;;;;;;;-1.12;86.74;98890.09;5130870;23;20210;-82
2021/12/27 03:41:13;;;;;;;40.57;25.90;;;;;;;-1.05;86.20;98898.97;5089857;23;20271;-82
2021/12/27 03:44:10;;;;;;;40.17;26.30;;;;;;;-1.07;86.73;98900.94;5094918;22;20228;-82
2021/12/27 03:47:40;;;;;;;42.73;27.73;;;;;;;-1.08;86.22;98899.31;5100526;23;20217;-81
2021/12/27 03:50:46;;;;;;;39.77;26.37;;;;;;;-0.95;85.68;98902.28;5059248;28;20233;-81
2021/12/27 03:54:00;;;;;;;39.07;26.57;;;;;;;-1.00;86.04;98899.31;5076513;28;20209;-81
2021/12/27 03:57:41;;;;;;;41.30;26.17;;;;;;;-1.17;86.35;98874.00;5077486;28;20189;-81
2021/12/27 04:03:39;;;;;;;39.27;27.27;;;;;;;-0.97;86.31;98891.09;5088012;22;20238;-82
2021/12/27 04:06:36;;;;;;;44.90;26.77;;;;;;;-0.97;85.56;98885.81;5062883;23;20226;-81
2021/12/27 04:10:09;;;;;;;38.57;26.27;;;;;;;-1.04;85.93;98876.97;5071024;22;20253;-81
2021/12/27 04:13:11;;;;;;;41.03;26.40;;;;;;;-0.93;86.16;98892.41;5062612;23;20222;-81
2021/12/27 04:16:14;;;;;;;44.03;27.90;;;;;;;-0.96;86.37;98891.91;5232545;23;20206;-81
2021/12/27 04:19:37;;;;;;;41.90;26.63;;;;;;;-1.11;86.32;98867.25;5063952;23;20208;-81
2021/12/27 04:22:58;;;;;;;41.47;27.40;;;;;;;-0.99;85.91;98895.69;5096770;22;20241;-81
2021/12/27 04:26:05;;;;;;;40.60;26.17;;;;;;;-0.99;86.05;98885.19;5056697;28;20229;-82
2021/12/27 04:28:44;;;;;;;39.83;26.27;;;;;;;-1.00;85.73;98894.06;5057270;23;20237;-82
2021/12/27 04:32:40;;;;;;;39.23;25.40;;;;;;;-0.98;86.65;98888.63;5057276;28;20257;-82
2021/12/27 04:38:02;;;;;;;39.80;26.63;;;;;;;-0.99;86.33;98884.34;4996565;28;20224;-81
2021/12/27 04:40:56;;;;;;;40.27;25.97;;;;;;;-1.06;86.25;98871.03;5025457;23;20229;-81
2021/12/27 04:43:48;;;;;;;38.40;24.80;;;;;;;-1.02;86.26;98877.59;5077239;28;20177;-81
2021/12/27 04:46:48;;;;;;;38.90;25.27;;;;;;;-0.99;86.43;98869.41;5082079;28;20240;-81
2021/12/27 04:50:02;;;;;;;36.20;23.80;;;;;;;-1.03;85.82;98883.03;5103707;22;20252;-82
2021/12/27 04:53:38;;;;;;;36.57;23.40;;;;;;;-1.05;86.17;98869.22;5096498;28;20201;-81
2021/12/27 04:56:43;;;;;;;34.03;21.83;;;;;;;-0.95;86.42;98869.91;5103013;22;20205;-82
2021/12/27 04:59:52;;;;;;;31.70;20.13;;;;;;;-0.86;84.93;98874.16;5083640;28;20188;-81
2021/12/27 05:02:38;;;;;;;28.27;19.53;;;;;;;-0.90;84.64;98871.06;5078603;23;20229;-81
2021/12/27 05:05:44;;;;;;;32.33;20.70;;;;;;;-0.89;85.12;98877.13;5081652;22;20221;-81
2021/12/27 05:08:33;;;;;;;28.03;19.10;;;;;;;-0.89;84.89;98874.50;5091028;22;20349;-81
2021/12/27 05:11:31;;;;;;;25.67;18.53;;;;;;;-1.04;85.43;98860.38;5063425;28;20202;-81
2021/12/27 05:14:33;;;;;;;27.47;18.47;;;;;;;-0.91;85.50;98881.72;5064307;28;20260;-82
2021/12/27 05:17:39;;;;;;;29.47;18.47;;;;;;;-0.91;85.69;98874.66;5119657;22;20229;31
2021/12/27 05:20:23;;;;;;;26.67;17.33;;;;;;;-1.03;85.45;98844.44;5056958;22;20222;-82
2021/12/27 05:23:33;;;;;;;25.27;16.60;;;;;;;-0.89;85.04;98872.66;5100051;28;20212;-81
2021/12/27 05:26:37;;;;;;;21.70;15.07;;;;;;;-0.84;85.48;98869.53;5114458;22;20231;-82
2021/12/27 05:29:20;;;;;;;20.97;14.33;;;;;;;-0.86;85.08;98874.16;5104392;22;20259;-81
2021/12/27 05:32:30;;;;;;;22.17;15.07;;;;;;;-0.83;85.10;98878.25;5095332;23;20249;-81
2021/12/27 05:35:46;;;;;;;19.17;13.23;;;;;;;-0.97;84.67;98877.09;5080182;28;20225;-81
2021/12/27 05:38:54;;;;;;;19.27;12.77;;;;;;;-0.86;85.34;98873.34;5087223;23;20225;-81
2021/12/27 05:41:30;;;;;;;16.80;11.97;;;;;;;-0.86;84.75;98879.41;5080369;28;20209;-81
2021/12/27 05:44:53;;;;;;;16.90;11.80;;;;;;;-0.89;84.95;98885.03;5079289;28;20252;-82
2021/12/27 05:47:59;;;;;;;17.93;12.23;;;;;;;-0.81;84.73;98873.66;5085523;22;20239;-81
2021/12/27 05:51:13;;;;;;;15.30;11.30;;;;;;;-0.85;84.08;98864.47;5082188;22;20229;-82
2021/12/27 05:54:07;;;;;;;17.23;11.70;;;;;;;-0.95;84.33;98859.38;5106282;22;20229;-82
2021/12/27 05:56:57;;;;;;;16.87;12.50;;;;;;;-0.90;84.67;98868.41;5053183;22;20253;-82
2021/12/27 05:59:52;;;;;;;14.93;11.67;;;;;;;-0.97;84.68;98846.38;5076041;28;20209;-82
2021/12/27 06:02:57;;;;;;;15.30;11.43;;;;;;;-0.89;84.03;98849.00;5045772;22;20209;-81
2021/12/27 06:05:49;;;;;;;16.83;12.43;;;;;;;-0.77;84.29;98870.53;5075678;28;20196;-82
2021/12/27 06:08:23;;;;;;;17.30;12.47;;;;;;;-0.78;84.18;98866.25;5064143;22;20230;-82
2021/12/27 06:11:27;;;;;;;16.13;11.83;;;;;;;-0.87;84.31;98864.63;5079859;23;20284;-81
2021/12/27 06:14:42;;;;;;;17.47;11.20;;;;;;;-0.88;84.40;98878.75;5052649;28;20266;-82
2021/12/27 06:17:47;;;;;;;16.83;12.73;;;;;;;-0.81;84.91;98881.56;5037197;22;20256;-81
2021/12/27 06:21:21;;;;;;;18.07;12.77;;;;;;;-0.69;84.39;98877.59;5052094;28;20644;-81
2021/12/27 06:24:28;;;;;;;16.20;11.60;;;;;;;-0.71;85.07;98871.69;5039865;22;20250;-82
2021/12/27 06:27:15;;;;;;;21.37;13.73;;;;;;;-0.80;85.33;98863.00;5003638;23;20295;-82
2021/12/27 06:30:45;;;;;;;16.23;12.60;;;;;;;-0.69;84.92;98862.63;5050593;22;20261;-82
2021/12/27 06:33:40;;;;;;;20.37;13.00;;;;;;;-0.66;85.07;98859.69;5087660;28;20247;-81
2021/12/27 06:36:43;;;;;;;18.67;13.90;;;;;;;-0.60;85.25;98864.25;5062350;28;20209;-82
2021/12/27 06:39:45;;;;;;;17.80;13.10;;;;;;;-0.58;85.57;98869.38;5073585;22;20229;-82
2021/12/27 06:42:51;;;;;;;17.17;12.70;;;;;;;-0.58;84.50;98866.72;5074249;28;20235;-81
2021/12/27 06:45:48;;;;;;;18.23;13.03;;;;;;;-0.71;85.24;98838.31;5076092;22;20222;-81
2021/12/27 06:48:49;;;;;;;17.83;13.40;;;;;;;-0.56;85.46;98857.66;5072388;23;20237;-81
2021/12/27 06:52:13;;;;;;;17.13;12.50;;;;;;;-0.68;85.30;98839.78;5031642;23;20280;-81
2021/12/27 06:55:38;;;;;;;18.80;13.30;;;;;;;-0.51;85.43;98867.69;5153289;23;20242;-82
2021/12/27 06:59:05;;;;;;;17.60;12.70;;;;;;;-0.53;84.73;98865.25;5030208;28;20222;-81
2021/12/27 07:01:45;;;;;;;16.37;12.53;;;;;;;-0.50;85.42;98877.22;4999157;28;20321;-81
2021/12/27 07:04:58;;;;;;;18.73;13.30;;;;;;;-0.55;84.59;98867.22;5059476;22;20233;-82
2021/12/27 07:07:52;;;;;;;16.73;12.57;;;;;;;-0.50;85.33;98870.16;5073444;28;20300;-81
2021/12/27 07:10:48;;;;;;;17.50;12.37;;;;;;;-0.45;85.05;98867.03;5075756;22;20217;-82
2021/12/27 07:13:43;;;;;;;16.83;12.47;;;;;;;-0.56;85.19;98841.88;5058838;23;20288;-82
2021/12/27 07:17:14;;;;;;;15.73;12.13;;;;;;;-0.28;85.11;98865.97;5059845;23;20242;-81
2021/12/27 07:20:55;;;;;;;16.40;12.97;;;;;;;-0.29;83.87;98863.53;5038298;23;20273;-82
2021/12/27 07:23:38;;;;;;;16.97;12.73;;;;;;;-0.36;84.26;98852.03;5056953;23;20227;-82
2021/12/27 07:26:46;;;;;;;15.43;12.00;;;;;;;-0.24;84.13;98872.59;5164970;22;20235;-81
2021/12/27 07:30:21;;;;;;;16.07;11.60;;;;;;;-0.21;84.08;98871.41;5029559;22;20252;-82
2021/12/27 07:42:33;;;;;;;16.37;13.40;;;;;;;0.08;82.69;98868.19;5068546;28;20532;-82
2021/12/27 07:45:21;;;;;;;17.30;13.23;;;;;;;0.15;83.64;98871.75;5073220;22;20238;-82
2021/12/27 07:51:23;;;;;;;16.80;13.00;;;;;;;0.32;83.37;98858.34;5084671;23;20228;-82
2021/12/27 07:54:24;;;;;;;19.33;14.03;;;;;;;0.51;82.54;98865.00;5095444;22;20252;-82
2021/12/27 08:00:57;;;;;;;22.33;16.57;;;;;;;0.69;81.49;98862.06;5096393;22;20230;-82
2021/12/27 08:03:59;;;;;;;18.97;14.33;;;;;;;0.85;82.06;98857.50;5109783;28;20228;-82
2021/12/27 08:07:13;;;;;;;21.90;16.63;;;;;;;1.04;79.89;98853.56;5108804;28;20269;-82
2021/12/27 08:10:21;;;;;;;21.23;16.77;;;;;;;1.02;79.96;98845.00;5116395;22;20236;-82
2021/12/27 08:13:23;;;;;;;20.73;16.70;;;;;;;1.22;80.11;98842.66;5116637;22;20298;-82
2021/12/27 08:16:13;;;;;;;25.07;18.00;;;;;;;1.29;78.94;98840.97;5117568;22;20244;-82
2021/12/27 08:18:56;;;;;;;23.70;18.90;;;;;;;1.52;77.80;98849.66;5285941;22;20167;-82
2021/12/27 08:21:33;;;;;;;24.00;18.20;;;;;;;1.49;77.74;98846.56;5109033;28;20224;-82
2021/12/27 08:24:23;;;;;;;23.90;17.60;;;;;;;1.60;77.37;98838.16;5107363;28;20245;-82
2021/12/27 08:27:39;;;;;;;23.77;16.37;;;;;;;1.73;76.07;98848.91;5114535;22;20220;-82
2021/12/27 08:30:32;;;;;;;26.70;19.13;;;;;;;1.80;75.53;98849.03;5101006;22;20208;-82
2021/12/27 08:33:14;;;;;;;24.97;18.03;;;;;;;1.74;75.33;98843.47;5085031;28;20620;-82
2021/12/27 08:36:24;;;;;;;25.87;19.10;;;;;;;1.83;75.99;98830.97;5109188;22;20235;-82
2021/12/27 08:39:04;;;;;;;26.83;18.23;;;;;;;2.04;76.00;98846.91;5109910;28;20220;-82
2021/12/27 08:41:39;;;;;;;26.43;19.00;;;;;;;2.10;75.01;98848.81;5119879;22;20250;-81
2021/12/27 08:44:28;;;;;;;28.10;19.60;;;;;;;2.11;73.93;98831.94;5097132;22;20201;-82
2021/12/27 08:47:20;;;;;;;29.17;20.83;;;;;;;2.30;74.22;98853.50;5123049;22;20247;-82
2021/12/27 08:49:52;;;;;;;31.23;20.73;;;;;;;2.41;73.87;98856.50;5108140;22;20232;-82
2021/12/27 08:52:47;;;;;;;28.00;19.00;;;;;;;2.55;73.26;98857.47;5076664;28;20237;-82
2021/12/27 08:55:39;;;;;;;27.03;18.67;;;;;;;2.37;72.07;98842.03;5064067;28;20211;-81
2021/12/27 08:58:45;;;;;;;28.63;19.07;;;;;;;2.51;71.40;98857.03;5042972;28;20199;-82
2021/12/27 09:01:41;;;;;;;27.03;18.90;;;;;;;2.59;72.22;98851.63;5054858;28;20218;-82
2021/12/27 09:04:46;;;;;;;27.87;19.77;;;;;;;2.61;72.03;98848.81;5057546;28;20197;-81
2021/12/27 09:08:14;;;;;;;24.50;18.30;;;;;;;2.74;71.00;98846.28;5057492;28;20221;-81
2021/12/27 09:11:26;;;;;;;27.83;18.30;;;;;;;2.69;71.17;98838.09;5102866;22;20244;-81
2021/12/27 09:14:28;;;;;;;26.53;18.53;;;;;;;2.70;71.78;98839.75;5075793;28;20229;-82
2021/12/27 09:17:35;;;;;;;29.37;19.10;;;;;;;2.73;71.50;98831.41;5075342;28;20213;-82
2021/12/27 09:20:43;;;;;;;28.73;19.87;;;;;;;2.88;70.89;98839.28;5075641;28;20233;-82
2021/12/27 09:27:25;;;;;;;26.30;19.03;;;;;;;2.95;70.61;98817.16;5034452;28;20269;-82
2021/12/27 09:30:37;;;;;;;26.03;17.97;;;;;;;3.12;70.68;98820.38;5033876;28;20215;-81
2021/12/27 09:33:47;;;;;;;26.27;18.83;;;;;;;3.09;69.95;98781.84;5045179;22;20226;-82
2021/12/27 09:36:53;;;;;;;25.73;18.43;;;;;;;3.43;69.21;98804.09;5171685;22;20253;-82
2021/12/27 09:39:57;;;;;;;26.03;17.60;;;;;;;3.42;68.86;98797.97;5094742;22;20221;-82
2021/12/27 09:42:40;;;;;;;26.83;18.13;;;;;;;3.24;69.68;98789.72;5135590;22;20240;-81
2021/12/27 09:46:06;;;;;;;21.67;17.13;;;;;;;3.33;68.87;98780.59;5061937;22;20268;-82
2021/12/27 09:49:29;;;;;;;28.67;18.37;;;;;;;3.59;69.01;98782.59;5075599;28;20228;-82
2021/12/27 09:53:10;;;;;;;27.07;18.23;;;;;;;3.88;69.32;98778.84;5080008;22;20238;-82
2021/12/27 09:56:47;;;;;;;27.60;17.03;;;;;;;4.08;66.97;98777.09;5035994;28;20190;-82
2021/12/27 10:00:01;;;;;;;23.20;16.37;;;;;;;4.17;66.60;98783.06;5033832;28;20225;-81
2021/12/27 10:02:57;;;;;;;23.57;16.10;;;;;;;4.22;66.12;98785.91;5066018;22;20225;-82
2021/12/27 10:06:38;;;;;;;23.90;16.70;;;;;;;4.62;65.43;98777.03;5064220;28;20233;-83
2021/12/27 10:10:13;;;;;;;20.97;16.47;;;;;;;4.70;63.74;98763.59;5099789;22;20225;-82
2021/12/27 10:13:33;;;;;;;22.80;16.23;;;;;;;4.91;63.62;98767.88;5020108;28;20234;-82
2021/12/27 10:17:10;;;;;;;26.47;16.40;;;;;;;5.11;62.74;98768.69;5059854;22;20248;-82
2021/12/27 10:19:42;;;;;;;22.57;15.70;;;;;;;5.38;61.83;98764.16;5062016;22;20232;-83
2021/12/27 10:22:26;;;;;;;23.83;16.87;;;;;;;5.40;60.56;98750.69;5062025;22;20233;-81
2021/12/27 10:25:56;;;;;;;23.40;16.53;;;;;;;5.70;60.92;98757.94;5074289;28;20213;-82
2021/12/27 10:29:14;;;;;;;25.07;16.87;;;;;;;5.96;59.86;98761.59;5112665;22;20278;-82
2021/12/27 10:32:37;;;;;;;29.57;18.70;;;;;;;5.97;59.95;98765.88;5136440;22;20258;-82
2021/12/27 10:36:03;;;;;;;27.53;17.23;;;;;;;5.90;59.63;98759.75;5077678;28;20208;-82
2021/12/27 10:39:04;;;;;;;25.10;18.97;;;;;;;6.25;59.12;98757.56;5105498;22;20224;-83
2021/12/27 10:42:00;;;;;;;22.93;17.03;;;;;;;6.24;59.13;98740.78;5128503;22;20242;-82
2021/12/27 10:45:10;;;;;;;24.93;17.07;;;;;;;6.39;58.69;98753.81;5125944;22;20694;-82
2021/12/27 10:48:24;;;;;;;25.50;18.70;;;;;;;6.50;59.20;98755.75;5110524;28;20223;-83
2021/12/27 10:51:19;;;;;;;24.87;17.07;;;;;;;6.28;57.68;98749.16;5126999;22;20243;-82
2021/12/27 10:54:41;;;;;;;24.23;17.23;;;;;;;6.44;56.67;98743.34;5102021;22;20251;-82
2021/12/27 10:58:10;;;;;;;22.47;17.20;;;;;;;6.69;58.40;98740.69;5111868;22;20230;-83
2021/12/27 11:01:59;;;;;;;30.00;20.70;;;;;;;6.54;57.67;98709.06;5129346;22;20231;-82
2021/12/27 11:05:18;;;;;;;25.73;17.53;;;;;;;6.52;57.86;98727.91;5186694;22;20175;-83
2021/12/27 11:08:10;;;;;;;26.23;17.70;;;;;;;6.59;57.80;98730.50;5114691;22;20638;-82
2021/12/27 11:10:56;;;;;;;24.97;18.00;;;;;;;6.48;57.70;98731.22;5100190;28;20189;-83
2021/12/27 11:14:28;;;;;;;23.37;16.93;;;;;;;6.38;57.50;98736.19;5138126;22;20220;-82
2021/12/27 11:18:05;;;;;;;22.13;15.90;;;;;;;6.20;58.08;98732.38;5086588;22;20229;-83
2021/12/27 11:20:56;;;;;;;23.17;16.17;;;;;;;6.18;57.71;98721.16;5109581;22;20228;-82
2021/12/27 11:24:03;;;;;;;23.00;16.40;;;;;;;6.09;57.28;98717.13;5320906;22;20218;-81
2021/12/27 11:26:55;;;;;;;23.57;16.27;;;;;;;5.84;57.64;98702.06;5032634;28;20223;-82
2021/12/27 11:30:06;;;;;;;23.67;16.77;;;;;;;5.93;57.45;98706.16;5010695;28;20670;-82
2021/12/27 11:33:42;;;;;;;20.87;15.67;;;;;;;5.82;55.99;98704.16;5190258;22;20219;-82
2021/12/27 11:37:13;;;;;;;19.43;12.93;;;;;;;5.63;56.33;98705.84;5206165;22;20219;-82
2021/12/27 11:40:23;;;;;;;16.80;12.80;;;;;;;5.38;56.78;98681.00;5120952;22;20238;-82
2021/12/27 11:44:09;;;;;;;15.30;11.73;;;;;;;5.47;55.51;98687.72;5114248;28;20227;-82
2021/12/27 11:47:34;;;;;;;16.10;11.80;;;;;;;5.43;55.32;98695.28;5012652;28;20238;-82
2021/12/27 11:51:53;;;;;;;14.63;10.73;;;;;;;5.39;54.43;98680.78;5034631;22;20219;-82
2021/12/27 11:58:55;;;;;;;15.43;10.83;;;;;;;5.38;54.67;98679.16;5067270;22;20215;-82
2021/12/27 12:01:43;;;;;;;15.37;10.23;;;;;;;5.15;54.87;98670.84;5099284;28;20212;-82
2021/12/27 12:05:19;;;;;;;11.87;9.30;;;;;;;5.18;54.68;98668.59;5122875;22;20324;-82
2021/12/27 12:09:01;;;;;;;14.17;9.80;;;;;;;5.22;55.43;98664.50;5074812;22;20291;-82
2021/12/27 12:12:35;;;;;;;14.33;10.70;;;;;;;5.22;55.52;98674.31;5144544;22;20262;-82
2021/12/27 12:16:29;;;;;;;11.90;8.87;;;;;;;5.26;54.19;98657.75;5121596;22;20226;-81
2021/12/27 12:19:38;;;;;;;11.80;9.03;;;;;;;5.35;54.31;98647.72;5217721;22;20254;-81
2021/12/27 12:23:02;;;;;;;11.87;8.70;;;;;;;5.33;55.03;98639.94;5098241;22;20233;-82
2021/12/27 12:26:42;;;;;;;13.43;8.90;;;;;;;5.40;54.89;98639.13;5115431;22;20220;-82
2021/12/27 12:30:01;;;;;;;14.83;10.00;;;;;;;5.27;55.26;98637.34;5120220;23;20240;-82
2021/12/27 12:33:09;;;;;;;13.93;9.40;;;;;;;5.33;55.39;98636.47;5132231;22;20219;-82
2021/12/27 12:36:22;;;;;;;14.13;9.33;;;;;;;5.24;55.73;98621.78;5098614;22;20236;-82
2021/12/27 12:39:20;;;;;;;13.20;9.10;;;;;;;5.26;55.74;98615.25;5100003;22;20248;-82
2021/12/27 12:42:38;;;;;;;13.23;9.17;;;;;;;5.32;55.14;98619.72;5098461;28;20228;-82
2021/12/27 12:45:46;;;;;;;14.73;9.73;;;;;;;5.32;55.45;98624.22;5102265;23;20281;-82
2021/12/27 12:48:34;;;;;;;15.20;10.70;;;;;;;4.99;55.38;98592.47;5117935;22;20232;-81
2021/12/27 12:51:47;;;;;;;15.57;10.73;;;;;;;5.13;55.57;98622.47;5126333;22;20293;-82
2021/12/27 12:55:35;;;;;;;15.03;10.57;;;;;;;5.12;54.72;98616.34;5123534;22;20216;-83
2021/12/27 12:58:16;;;;;;;16.63;11.70;;;;;;;4.95;54.65;98603.69;5060476;28;20207;-81
2021/12/27 13:01:55;;;;;;;18.07;11.33;;;;;;;4.99;55.57;98608.41;5215069;22;20211;-82
2021/12/27 13:05:03;;;;;;;17.23;11.47;;;;;;;4.88;55.13;98609.03;5109828;28;20223;-83
2021/12/27 13:08:05;;;;;;;17.47;11.30;;;;;;;4.71;55.60;98599.91;5104943;23;20255;-82
2021/12/27 13:11:25;;;;;;;15.63;10.73;;;;;;;4.57;55.26;98603.59;5124921;22;20215;-82
2021/12/27 13:14:50;;;;;;;13.97;10.67;;;;;;;4.33;56.55;98573.22;5130907;22;20220;-81
2021/12/27 13:17:46;;;;;;;16.20;10.23;;;;;;;4.46;56.36;98599.72;5105812;22;20250;-82
2021/12/27 13:20:56;;;;;;;15.60;11.53;;;;;;;4.34;56.20;98598.69;5149134;22;20263;-82
2021/12/27 13:24:31;;;;;;;14.87;10.70;;;;;;;4.18;56.75;98599.94;5125817;22;20228;-83
2021/12/27 13:28:14;;;;;;;14.13;10.50;;;;;;;4.09;56.76;98602.97;5112069;22;20228;-82
2021/12/27 13:31:29;;;;;;;15.23;9.87;;;;;;;3.94;57.00;98596.03;5088307;28;20254;-81
2021/12/27 13:34:26;;;;;;;15.17;10.93;;;;;;;3.89;56.89;98597.66;5141031;22;20231;-82
2021/12/27 13:37:51;;;;;;;15.03;10.33;;;;;;;3.74;57.53;98581.94;5107884;22;20235;-82
2021/12/27 13:41:33;;;;;;;15.57;10.83;;;;;;;3.72;57.98;98593.75;5075885;22;20221;-82
2021/12/27 13:44:58;;;;;;;16.33;11.10;;;;;;;3.51;58.13;98570.88;5061528;22;20226;-82
2021/12/27 13:48:18;;;;;;;14.93;10.60;;;;;;;3.62;58.08;98586.19;5077851;28;20189;-82
2021/12/27 13:51:09;;;;;;;15.57;10.60;;;;;;;3.62;58.17;98594.13;5019347;28;20803;-82
2021/12/27 13:53:36;;;;;;;13.87;10.27;;;;;;;3.44;58.53;98597.34;5003295;28;20239;-82
2021/12/27 13:56:33;;;;;;;15.50;10.90;;;;;;;3.52;58.49;98613.06;5153207;22;20224;-81
2021/12/27 14:00:01;;;;;;;16.10;9.73;;;;;;;3.46;58.04;98587.38;5185851;22;20232;-81
2021/12/27 14:03:29;;;;;;;13.60;9.77;;;;;;;3.53;57.95;98598.81;5036663;28;20234;-82
2021/12/27 14:06:47;;;;;;;13.37;9.67;;;;;;;3.38;58.25;98597.31;5033904;28;20220;-82
2021/12/27 14:09:47;;;;;;;16.33;10.30;;;;;;;3.27;58.80;98597.88;5036757;28;20234;-82
2021/12/27 14:12:31;;;;;;;15.73;9.87;;;;;;;3.12;59.27;98600.69;5086770;23;20215;-81
2021/12/27 14:15:40;;;;;;;14.00;9.67;;;;;;;3.12;58.93;98599.88;5126278;22;20224;-82
2021/12/27 14:19:24;;;;;;;14.57;9.40;;;;;;;2.92;58.78;98595.31;5084827;28;20230;-82
2021/12/27 14:22:36;;;;;;;19.53;11.63;;;;;;;2.76;59.22;98578.91;5120557;22;20231;-81
2021/12/27 14:25:46;;;;;;;18.30;11.40;;;;;;;2.79;59.96;98602.34;5123827;22;20216;-81
2021/12/27 14:28:48;;;;;;;15.13;10.00;;;;;;;2.67;59.78;98608.16;5124386;22;20271;-81
2021/12/27 14:32:27;;;;;;;16.50;10.93;;;;;;;2.48;60.70;98598.28;5091998;28;20208;-81
2021/12/27 14:35:34;;;;;;;16.37;10.73;;;;;;;2.36;61.27;98602.47;5104903;22;20215;-82
2021/12/27 14:38:47;;;;;;;17.30;11.10;;;;;;;2.39;60.51;98603.91;5123611;22;20251;-81
2021/12/27 14:42:43;;;;;;;21.07;12.10;;;;;;;2.12;61.22;98585.19;5125214;22;20223;-81
2021/12/27 14:45:40;;;;;;;15.63;10.83;;;;;;;2.24;61.60;98593.41;5115367;28;20639;-81
2021/12/27 14:48:51;;;;;;;16.03;10.87;;;;;;;2.05;61.41;98594.09;5106738;22;20204;-81
2021/12/27 14:51:34;;;;;;;17.57;11.97;;;;;;;1.86;61.75;98585.00;5113681;22;20208;-81
2021/12/27 14:54:26;;;;;;;18.53;14.43;;;;;;;1.95;61.90;98601.53;5102323;22;20212;-81
2021/12/27 14:57:44;;;;;;;15.70;11.73;;;;;;;1.85;62.18;98601.84;5097391;28;20208;-82
2021/12/27 15:01:06;;;;;;;18.83;11.20;;;;;;;1.69;62.76;98605.53;5077062;28;20225;-81
2021/12/27 15:04:27;;;;;;;15.37;11.60;;;;;;;1.64;63.08;98601.81;5106922;22;20220;-80
2021/12/27 15:07:45;;;;;;;16.17;11.50;;;;;;;1.43;63.77;98593.88;5095105;28;20220;-81
2021/12/27 15:14:52;;;;;;;15.30;10.07;;;;;;;1.39;64.25;98596.06;5014322;28;20234;-81